createdAt,value
2019-02-10T00:00:37.490Z,99.90
2019-02-10T00:03:08.558Z,99.90
2019-02-10T00:05:38.641Z,99.90
2019-02-10T00:08:14.737Z,99.90
2019-02-10T00:10:54.433Z,99.90
2019-02-10T00:13:34.196Z,99.90
2019-02-10T00:16:11.250Z,99.90
2019-02-10T00:18:42.396Z,99.90
2019-02-10T00:21:12.469Z,99.90
2019-02-10T00:23:48.331Z,99.90
2019-02-10T00:26:18.405Z,99.90
2019-02-10T00:28:50.385Z,99.90
2019-02-10T00:31:20.485Z,99.90
2019-02-10T00:33:50.561Z,99.90
2019-02-10T00:36:22.536Z,99.90
2019-02-10T00:38:52.641Z,99.90
2019-02-10T00:41:28.438Z,99.90
2019-02-10T00:44:02.482Z,99.90
2019-02-10T00:46:34.121Z,99.90
2019-02-10T00:49:07.335Z,99.90
2019-02-10T00:51:38.297Z,99.90
2019-02-10T00:54:14.469Z,99.90
2019-02-10T00:56:44.562Z,99.90
2019-02-10T00:59:14.621Z,99.90
2019-02-10T01:01:49.269Z,99.90
2019-02-10T01:04:19.422Z,99.90
2019-02-10T01:06:51.477Z,99.90
2019-02-10T01:09:26.505Z,99.90
2019-02-10T01:11:56.590Z,99.90
2019-02-10T01:14:27.678Z,99.90
2019-02-10T01:16:58.710Z,99.90
2019-02-10T01:19:28.813Z,99.90
2019-02-10T01:21:58.889Z,99.90
2019-02-10T01:24:28.988Z,99.90
2019-02-10T01:26:59.066Z,99.90
2019-02-10T01:29:29.165Z,99.90
2019-02-10T01:32:00.145Z,99.90
2019-02-10T01:34:39.145Z,99.90
2019-02-10T01:37:12.817Z,99.90
2019-02-10T01:39:44.825Z,99.90
2019-02-10T01:42:14.911Z,99.90
2019-02-10T01:44:46.905Z,99.90
2019-02-10T01:47:17.006Z,99.90
2019-02-10T01:49:47.185Z,99.90
2019-02-10T01:52:17.267Z,99.90
2019-02-10T01:54:47.813Z,99.90
2019-02-10T01:57:21.034Z,99.90
2019-02-10T01:59:53.049Z,99.90
2019-02-10T02:02:31.170Z,99.90
2019-02-10T02:05:05.417Z,99.90
2019-02-10T02:07:41.799Z,99.90
2019-02-10T02:10:14.603Z,99.90
2019-02-10T02:12:52.384Z,99.90
2019-02-10T02:15:23.475Z,99.90
2019-02-10T02:17:53.812Z,99.90
2019-02-10T02:20:23.890Z,99.90
2019-02-10T02:22:56.110Z,99.90
2019-02-10T02:25:26.199Z,99.90
2019-02-10T02:27:58.175Z,99.90
2019-02-10T02:30:28.311Z,99.90
2019-02-10T02:33:00.396Z,99.90
2019-02-10T02:35:32.391Z,99.90
2019-02-10T02:38:08.577Z,99.90
2019-02-10T02:40:41.669Z,99.90
2019-02-10T02:43:13.714Z,99.90
2019-02-10T02:45:44.677Z,99.90
2019-02-10T02:48:14.766Z,99.90
2019-02-10T02:50:44.971Z,99.90
2019-02-10T02:53:21.046Z,99.90
2019-02-10T02:55:51.134Z,99.90
2019-02-10T02:58:23.111Z,99.90
2019-02-10T03:00:53.202Z,99.90
2019-02-10T03:03:29.391Z,99.90
2019-02-10T03:05:59.470Z,99.90
2019-02-10T03:08:31.111Z,99.90
2019-02-10T03:11:03.160Z,99.90
2019-02-10T03:13:34.707Z,99.90
2019-02-10T03:16:04.796Z,99.90
2019-02-10T03:18:41.602Z,99.90
2019-02-10T03:21:17.444Z,99.90
2019-02-10T03:23:50.527Z,99.90
2019-02-10T03:26:21.519Z,99.90
2019-02-10T03:28:53.523Z,99.90
2019-02-10T03:31:25.500Z,99.90
2019-02-10T03:33:59.330Z,99.90
2019-02-10T03:36:35.462Z,99.90
2019-02-10T03:39:07.053Z,99.90
2019-02-10T03:41:37.212Z,99.90
2019-02-10T03:44:07.551Z,99.90
2019-02-10T03:46:38.500Z,99.90
2019-02-10T03:49:09.519Z,99.90
2019-02-10T03:51:48.398Z,99.90
2019-02-10T03:54:18.494Z,99.90
2019-02-10T03:56:49.637Z,99.90
2019-02-10T03:59:27.447Z,99.90
2019-02-10T04:01:57.539Z,99.90
2019-02-10T04:04:27.634Z,99.90
2019-02-10T04:06:57.748Z,99.90
2019-02-10T04:09:27.794Z,99.90
2019-02-10T04:11:58.834Z,99.90
2019-02-10T04:14:29.875Z,99.90
2019-02-10T04:17:01.610Z,99.90
2019-02-10T04:19:31.751Z,99.90
2019-02-10T04:22:03.807Z,99.90
2019-02-10T04:24:36.998Z,99.90
2019-02-10T04:27:14.167Z,99.90
2019-02-10T04:29:46.243Z,99.90
2019-02-10T04:32:16.327Z,99.90
2019-02-10T04:34:46.412Z,99.90
2019-02-10T04:37:17.434Z,99.90
2019-02-10T04:39:47.506Z,99.90
2019-02-10T04:42:23.502Z,99.90
2019-02-10T04:44:53.606Z,99.90
2019-02-10T04:47:23.678Z,99.90
2019-02-10T04:49:55.700Z,99.90
2019-02-10T04:52:25.774Z,99.90
2019-02-10T04:55:01.656Z,99.90
2019-02-10T04:57:32.714Z,99.90
2019-02-10T05:00:02.858Z,99.90
2019-02-10T05:02:33.874Z,99.90
2019-02-10T05:05:07.063Z,99.90
2019-02-10T05:07:38.117Z,99.90
2019-02-10T05:10:13.130Z,99.90
2019-02-10T05:12:43.236Z,99.90
2019-02-10T05:15:34.390Z,99.90
2019-02-10T05:18:04.534Z,99.90
2019-02-10T05:20:36.527Z,99.90
2019-02-10T05:23:06.614Z,99.90
2019-02-10T05:25:37.840Z,99.90
2019-02-10T05:28:07.964Z,99.90
2019-02-10T05:30:38.989Z,99.90
2019-02-10T05:33:09.990Z,99.90
2019-02-10T05:35:42.067Z,99.90
2019-02-10T05:38:22.587Z,99.90
2019-02-10T05:41:06.779Z,99.90
2019-02-10T05:43:37.847Z,99.90
2019-02-10T05:46:15.127Z,99.90
2019-02-10T05:48:52.403Z,99.90
2019-02-10T05:51:22.480Z,99.90
2019-02-10T05:53:52.563Z,99.90
2019-02-10T05:56:37.691Z,99.90
2019-02-10T05:59:26.035Z,99.90
2019-02-10T06:02:15.627Z,99.90
2019-02-10T06:04:53.533Z,99.90
2019-02-10T06:07:31.647Z,99.90
2019-02-10T06:10:11.667Z,99.90
2019-02-10T06:12:42.743Z,99.90
2019-02-10T06:15:14.770Z,99.90
2019-02-10T06:17:46.847Z,99.90
2019-02-10T06:20:17.887Z,99.90
2019-02-10T06:22:54.683Z,99.90
2019-02-10T06:25:36.784Z,99.90
2019-02-10T06:28:24.659Z,99.90
2019-02-10T06:31:02.703Z,99.90
2019-02-10T06:33:32.811Z,99.90
2019-02-10T06:36:02.893Z,99.90
2019-02-10T06:38:38.803Z,99.90
2019-02-10T06:41:08.879Z,99.90
2019-02-10T06:43:39.955Z,99.90
2019-02-10T06:46:12.059Z,99.90
2019-02-10T06:48:42.151Z,99.90
2019-02-10T06:51:20.164Z,99.90
2019-02-10T06:53:57.208Z,99.90
2019-02-10T06:56:30.531Z,99.90
2019-02-10T06:59:14.363Z,99.90
2019-02-10T07:01:51.019Z,99.90
2019-02-10T07:04:37.207Z,99.90
2019-02-10T07:07:15.847Z,99.90
2019-02-10T07:09:46.079Z,99.90
2019-02-10T07:12:50.697Z,99.90
2019-02-10T07:16:16.103Z,99.90
2019-02-10T07:19:50.768Z,99.90
2019-02-10T07:22:52.428Z,99.90
2019-02-10T07:25:42.623Z,99.90
2019-02-10T07:28:18.265Z,99.90
2019-02-10T07:30:58.411Z,99.90
2019-02-10T07:34:15.359Z,99.90
2019-02-10T07:36:58.943Z,99.90
2019-02-10T07:40:25.255Z,99.90
2019-02-10T07:43:39.265Z,99.90
2019-02-10T07:46:45.355Z,99.90
2019-02-10T07:49:40.912Z,99.90
2019-02-10T07:52:55.463Z,99.90
2019-02-10T07:56:09.101Z,99.90
2019-02-10T07:58:58.670Z,99.90
2019-02-10T08:02:11.199Z,99.90
2019-02-10T08:05:23.739Z,99.90
2019-02-10T08:08:36.335Z,99.90
2019-02-10T08:11:53.143Z,99.90
2019-02-10T08:14:33.643Z,99.90
2019-02-10T08:17:38.371Z,99.90
2019-02-10T08:20:30.507Z,99.90
2019-02-10T08:23:10.576Z,99.90
2019-02-10T08:26:18.215Z,99.90
2019-02-10T08:29:24.623Z,99.90
2019-02-10T08:32:25.043Z,99.90
2019-02-10T08:35:40.013Z,99.90
2019-02-10T08:38:29.455Z,99.90
2019-02-10T08:41:37.471Z,99.90
2019-02-10T08:44:28.267Z,99.90
2019-02-10T08:47:18.575Z,99.90
2019-02-10T08:50:28.118Z,99.90
2019-02-10T08:53:08.557Z,99.90
2019-02-10T08:55:39.571Z,99.90
2019-02-10T08:58:23.531Z,99.90
2019-02-10T09:00:54.567Z,99.90
2019-02-10T09:03:24.645Z,99.90
2019-02-10T09:05:56.691Z,99.90
2019-02-10T09:08:26.795Z,99.90
2019-02-10T09:10:57.839Z,99.90
2019-02-10T09:13:28.852Z,99.90
2019-02-10T09:16:10.956Z,99.90
2019-02-10T09:18:51.206Z,99.90
2019-02-10T09:21:21.295Z,99.90
2019-02-10T09:23:58.341Z,99.90
2019-02-10T09:26:28.435Z,99.90
2019-02-10T09:29:00.483Z,99.90
2019-02-10T09:31:30.560Z,99.90
2019-02-10T09:34:00.699Z,99.90
2019-02-10T09:36:59.035Z,99.90
2019-02-10T09:39:29.205Z,99.90
2019-02-10T09:42:10.512Z,99.90
2019-02-10T09:44:46.632Z,99.90
2019-02-10T09:47:25.901Z,99.90
2019-02-10T09:50:08.512Z,99.90
2019-02-10T09:52:51.652Z,99.90
2019-02-10T09:55:22.704Z,99.90
2019-02-10T09:57:54.772Z,99.90
2019-02-10T10:00:25.766Z,99.90
2019-02-10T10:02:57.877Z,99.90
2019-02-10T10:05:36.056Z,99.90
2019-02-10T10:08:07.100Z,99.90
2019-02-10T10:10:38.128Z,99.90
2019-02-10T10:13:13.968Z,99.90
2019-02-10T10:15:50.044Z,99.90
2019-02-10T10:18:26.204Z,99.90
2019-02-10T10:21:02.348Z,99.90
2019-02-10T10:23:33.437Z,99.90
2019-02-10T10:26:06.480Z,99.90
2019-02-10T10:28:44.300Z,99.90
2019-02-10T10:31:17.356Z,99.90
2019-02-10T10:33:51.065Z,99.90
2019-02-10T10:36:33.616Z,99.90
2019-02-10T10:39:27.605Z,99.90
2019-02-10T10:41:57.816Z,99.20
2019-02-10T10:44:29.880Z,96.60
2019-02-10T10:46:59.960Z,94.40
2019-02-10T10:49:30.082Z,91.50
2019-02-10T10:52:06.004Z,90.10
2019-02-10T10:54:42.653Z,87.40
2019-02-10T10:57:10.988Z,82.30
2019-02-10T10:59:46.289Z,79.50
2019-02-10T11:02:20.449Z,79.70
2019-02-10T11:04:51.508Z,79.50
2019-02-10T11:07:23.576Z,78.30
2019-02-10T11:10:20.740Z,75.70
2019-02-10T11:12:50.915Z,73.50
2019-02-10T11:15:20.989Z,72.30
2019-02-10T11:17:51.082Z,70.90
2019-02-10T11:20:27.876Z,68.90
2019-02-10T11:23:05.040Z,68.50
2019-02-10T11:25:51.220Z,68.10
2019-02-10T11:28:23.196Z,69.20
2019-02-10T11:30:53.309Z,68.10
2019-02-10T11:33:23.388Z,67.50
2019-02-10T11:35:57.616Z,67.40
2019-02-10T11:38:28.681Z,66.50
2019-02-10T11:40:58.796Z,65.00
2019-02-10T11:43:35.776Z,63.40
2019-02-10T11:46:05.876Z,62.00
2019-02-10T11:48:36.994Z,60.80
2019-02-10T11:51:07.104Z,59.30
2019-02-10T11:54:00.620Z,59.50
2019-02-10T11:56:32.699Z,59.60
2019-02-10T11:59:18.784Z,58.90
2019-02-10T12:01:50.845Z,57.30
2019-02-10T12:04:23.596Z,57.40
2019-02-10T12:06:53.740Z,58.50
2019-02-10T12:09:29.588Z,58.70
2019-02-10T12:12:04.080Z,59.40
2019-02-10T12:14:35.068Z,59.30
2019-02-10T12:17:05.253Z,59.40
2019-02-10T12:19:36.029Z,59.40
2019-02-10T12:22:12.154Z,59.30
2019-02-10T12:24:50.972Z,59.90
2019-02-10T12:27:21.133Z,60.50
2019-02-10T12:29:52.089Z,61.80
2019-02-10T12:32:23.177Z,62.60
2019-02-10T12:34:53.265Z,63.10
2019-02-10T12:37:23.333Z,63.80
2019-02-10T12:39:59.694Z,63.70
2019-02-10T12:42:25.252Z,64.00
2019-02-10T12:45:10.597Z,64.20
2019-02-10T12:47:40.694Z,65.00
2019-02-10T12:50:14.654Z,65.90
2019-02-10T12:52:51.741Z,66.20
2019-02-10T12:55:21.826Z,65.70
2019-02-10T12:57:51.911Z,66.30
2019-02-10T13:00:23.984Z,66.10
2019-02-10T13:03:00.844Z,66.10
2019-02-10T13:05:31.904Z,67.00
2019-02-10T13:08:02.936Z,67.40
2019-02-10T13:10:33.018Z,66.50
2019-02-10T13:13:03.093Z,65.20
2019-02-10T13:15:33.180Z,66.20
2019-02-10T13:18:07.721Z,66.00
2019-02-10T13:20:39.774Z,65.80
2019-02-10T13:23:09.856Z,66.70
2019-02-10T13:25:42.993Z,65.80
2019-02-10T13:28:19.774Z,64.20
2019-02-10T13:30:50.745Z,61.00
2019-02-10T13:33:28.819Z,59.70
2019-02-10T13:35:58.910Z,58.70
2019-02-10T13:38:36.533Z,59.60
2019-02-10T13:41:07.569Z,59.70
2019-02-10T13:43:37.649Z,58.50
2019-02-10T13:46:18.884Z,57.80
2019-02-10T13:48:48.977Z,57.80
2019-02-10T13:51:19.093Z,57.90
2019-02-10T13:53:50.089Z,58.10
2019-02-10T13:56:21.153Z,59.00
2019-02-10T13:58:52.209Z,59.20
2019-02-10T14:01:22.297Z,59.80
2019-02-10T14:03:59.360Z,59.10
2019-02-10T14:06:41.393Z,60.80
2019-02-10T14:09:11.485Z,60.80
2019-02-10T14:11:43.481Z,60.30
2019-02-10T14:14:15.541Z,61.90
2019-02-10T14:16:50.577Z,62.50
2019-02-10T14:19:20.669Z,62.60
2019-02-10T14:21:50.761Z,61.90
2019-02-10T14:24:28.142Z,60.70
2019-02-10T14:26:58.247Z,59.90
2019-02-10T14:29:30.281Z,60.00
2019-02-10T14:32:01.317Z,59.20
2019-02-10T14:34:46.509Z,59.30
2019-02-10T14:37:19.250Z,59.20
2019-02-10T14:39:50.257Z,59.50
2019-02-10T14:42:20.341Z,59.60
2019-02-10T14:44:50.441Z,59.20
2019-02-10T14:47:20.513Z,59.30
2019-02-10T14:49:56.535Z,58.90
2019-02-10T14:52:35.685Z,58.50
2019-02-10T14:55:06.141Z,58.70
2019-02-10T14:57:39.150Z,58.80
2019-02-10T15:00:13.425Z,59.50
2019-02-10T15:02:43.533Z,60.80
2019-02-10T15:05:14.641Z,63.10
2019-02-10T15:07:52.541Z,65.10
2019-02-10T15:10:25.660Z,67.00
2019-02-10T15:13:06.559Z,70.40
2019-02-10T15:15:49.726Z,76.70
2019-02-10T15:18:29.781Z,93.70
2019-02-10T15:21:03.273Z,99.90
2019-02-10T15:23:36.409Z,99.90
2019-02-10T15:26:15.052Z,99.90
2019-02-10T15:28:51.525Z,99.90
2019-02-10T15:31:21.629Z,99.90
2019-02-10T15:34:00.915Z,99.90
2019-02-10T15:36:55.241Z,99.90
2019-02-10T15:39:27.281Z,99.90
2019-02-10T15:41:57.377Z,99.90
2019-02-10T15:44:33.242Z,99.90
2019-02-10T15:47:03.313Z,99.90
2019-02-10T15:49:38.004Z,99.90
2019-02-10T15:52:08.090Z,99.90
2019-02-10T15:54:38.186Z,99.90
2019-02-10T15:57:08.262Z,99.90
2019-02-10T15:59:50.505Z,99.90
2019-02-10T16:02:23.617Z,99.90
2019-02-10T16:04:54.589Z,99.90
2019-02-10T16:07:33.993Z,99.90
2019-02-10T16:10:12.421Z,99.90
2019-02-10T16:12:42.596Z,99.90
2019-02-10T16:15:18.605Z,99.90
2019-02-10T16:17:52.643Z,99.90
2019-02-10T16:20:25.212Z,99.90
2019-02-10T16:23:06.342Z,99.90
2019-02-10T16:25:47.577Z,99.90
2019-02-10T16:28:17.677Z,99.90
2019-02-10T16:30:47.753Z,99.90
2019-02-10T16:33:18.821Z,99.90
2019-02-10T16:35:50.797Z,99.90
2019-02-10T16:38:21.805Z,99.90
2019-02-10T16:40:55.934Z,99.90
2019-02-10T16:43:37.301Z,99.90
2019-02-10T16:46:07.421Z,99.90
2019-02-10T16:48:37.483Z,99.90
2019-02-10T16:51:10.217Z,99.90
2019-02-10T16:53:45.993Z,99.90
2019-02-10T16:56:16.085Z,99.90
2019-02-10T16:58:48.057Z,99.90
2019-02-10T17:01:18.205Z,99.90
2019-02-10T17:03:49.200Z,99.90
2019-02-10T17:06:19.273Z,99.90
2019-02-10T17:08:49.349Z,99.90
2019-02-10T17:11:22.385Z,99.90
2019-02-10T17:13:52.457Z,99.90
2019-02-10T17:16:22.594Z,99.90
2019-02-10T17:19:05.720Z,99.90
2019-02-10T17:21:35.810Z,99.90
2019-02-10T17:24:05.894Z,99.90
2019-02-10T17:26:35.969Z,99.90
2019-02-10T17:29:12.102Z,99.90
2019-02-10T17:31:42.554Z,99.90
2019-02-10T17:34:14.806Z,99.90
2019-02-10T17:36:48.909Z,99.90
2019-02-10T17:39:26.718Z,99.90
2019-02-10T17:41:58.775Z,99.90
2019-02-10T17:44:29.813Z,99.90
2019-02-10T17:46:59.894Z,99.90
2019-02-10T17:49:30.970Z,99.90
2019-02-10T17:52:03.067Z,99.90
2019-02-10T17:54:34.070Z,99.90
2019-02-10T17:57:04.138Z,99.90
2019-02-10T17:59:34.222Z,99.90
2019-02-10T18:02:10.274Z,99.90
2019-02-10T18:04:49.406Z,99.90
2019-02-10T18:07:30.715Z,99.90
2019-02-10T18:10:02.682Z,99.90
2019-02-10T18:12:33.650Z,99.90
2019-02-10T18:15:08.566Z,99.90
2019-02-10T18:17:41.248Z,99.90
2019-02-10T18:20:23.292Z,99.90
2019-02-10T18:23:08.606Z,99.90
2019-02-10T18:25:41.266Z,99.90
2019-02-10T18:28:35.050Z,99.90
2019-02-10T18:31:22.966Z,99.90
2019-02-10T18:34:20.551Z,99.90
2019-02-10T18:37:08.690Z,99.90
2019-02-10T18:39:46.186Z,99.90
2019-02-10T18:42:34.018Z,99.90
2019-02-10T18:45:10.174Z,99.90
2019-02-10T18:47:51.419Z,99.90
2019-02-10T18:50:34.126Z,99.90
2019-02-10T18:53:20.594Z,99.90
2019-02-10T18:56:05.943Z,99.90
2019-02-10T18:58:40.086Z,99.90
2019-02-10T19:01:30.698Z,99.90
2019-02-10T19:04:24.270Z,99.90
2019-02-10T19:07:02.258Z,99.90
2019-02-10T19:09:34.036Z,99.90
2019-02-10T19:12:07.006Z,99.90
2019-02-10T19:14:44.409Z,99.90
2019-02-10T19:17:18.446Z,99.90
2019-02-10T19:19:59.030Z,99.90
2019-02-10T19:22:34.822Z,99.90
2019-02-10T19:25:23.006Z,99.90
2019-02-10T19:28:14.272Z,99.90
2019-02-10T19:30:56.046Z,99.90
2019-02-10T19:33:39.487Z,99.90
2019-02-10T19:36:12.234Z,99.90
2019-02-10T19:39:06.143Z,99.90
2019-02-10T19:41:38.794Z,99.90
2019-02-10T19:44:11.418Z,99.90
2019-02-10T19:47:00.160Z,99.90
2019-02-10T19:49:34.579Z,99.90
2019-02-10T19:52:06.451Z,99.90
2019-02-10T19:54:46.618Z,99.90
2019-02-10T19:57:24.358Z,99.90
2019-02-10T20:00:11.958Z,99.90
2019-02-10T20:02:53.165Z,99.90
2019-02-10T20:05:39.858Z,99.90
2019-02-10T20:08:27.732Z,99.90
2019-02-10T20:10:59.450Z,99.90
2019-02-10T20:13:55.090Z,99.90
2019-02-10T20:16:42.066Z,99.90
2019-02-10T20:19:14.761Z,99.90
2019-02-10T20:22:04.233Z,99.90
2019-02-10T20:24:52.244Z,99.90
2019-02-10T20:27:42.874Z,99.90
2019-02-10T20:30:23.773Z,99.90
2019-02-10T20:33:17.379Z,99.90
2019-02-10T20:35:57.850Z,99.90
2019-02-10T20:38:34.226Z,99.90
2019-02-10T20:41:06.983Z,99.90
2019-02-10T20:43:38.694Z,99.90
2019-02-10T20:46:10.419Z,99.90
2019-02-10T20:48:44.126Z,99.90
2019-02-10T20:51:15.850Z,99.90
2019-02-10T20:54:01.494Z,99.90
2019-02-10T20:56:36.007Z,99.90
2019-02-10T20:59:08.755Z,99.90
2019-02-10T21:01:46.083Z,99.90
2019-02-10T21:04:29.507Z,99.90
2019-02-10T21:07:03.207Z,99.90
2019-02-10T21:09:38.807Z,99.90
2019-02-10T21:12:20.448Z,99.90
2019-02-10T21:14:59.251Z,99.90
2019-02-10T21:17:30.979Z,99.90
2019-02-10T21:20:15.220Z,99.90
2019-02-10T21:22:53.663Z,99.90
2019-02-10T21:25:41.965Z,99.90
2019-02-10T21:28:18.630Z,99.90
2019-02-10T21:31:04.536Z,99.90
2019-02-10T21:33:39.223Z,99.90
2019-02-10T21:36:27.092Z,99.90
2019-02-10T21:39:07.535Z,99.90
2019-02-10T21:41:53.560Z,99.90
2019-02-10T21:44:33.179Z,99.90
2019-02-10T21:47:16.598Z,99.90
2019-02-10T21:49:46.681Z,99.90
2019-02-10T21:52:17.739Z,99.90
2019-02-10T21:54:47.807Z,99.90
2019-02-10T21:57:17.910Z,99.90
2019-02-10T21:59:47.983Z,99.90
2019-02-10T22:02:20.018Z,99.90
2019-02-10T22:04:50.115Z,99.90
2019-02-10T22:07:20.187Z,99.90
2019-02-10T22:09:50.395Z,99.90
2019-02-10T22:12:20.468Z,99.90
2019-02-10T22:14:53.599Z,99.90
2019-02-10T22:17:27.715Z,99.90
2019-02-10T22:19:57.803Z,99.90
2019-02-10T22:22:27.888Z,99.90
2019-02-10T22:24:57.975Z,99.90
2019-02-10T22:27:31.199Z,99.90
2019-02-10T22:30:01.303Z,99.90
2019-02-10T22:32:32.307Z,99.90
2019-02-10T22:35:03.667Z,99.90
2019-02-10T22:37:33.743Z,99.90
2019-02-10T22:40:12.347Z,99.90
2019-02-10T22:42:45.918Z,99.90
2019-02-10T22:45:14.382Z,99.90
2019-02-10T22:47:44.459Z,99.90
2019-02-10T22:50:16.450Z,99.90
2019-02-10T22:52:46.535Z,99.90
2019-02-10T22:55:17.635Z,99.90
2019-02-10T22:57:47.751Z,99.90
2019-02-10T23:00:48.143Z,99.90
2019-02-10T23:03:19.191Z,99.90
2019-02-10T23:05:49.255Z,99.90
2019-02-10T23:08:20.147Z,99.90
2019-02-10T23:10:51.971Z,99.90
2019-02-10T23:13:22.975Z,99.90
2019-02-10T23:15:56.163Z,99.90
2019-02-10T23:18:26.231Z,99.90
2019-02-10T23:20:56.311Z,99.90
2019-02-10T23:23:26.420Z,99.90
2019-02-10T23:25:56.519Z,99.90
2019-02-10T23:28:26.625Z,99.90
2019-02-10T23:30:56.690Z,99.90
2019-02-10T23:33:27.703Z,99.90
2019-02-10T23:35:59.420Z,99.90
2019-02-10T23:38:30.399Z,99.90
2019-02-10T23:41:00.495Z,99.90
2019-02-10T23:43:30.563Z,99.90
2019-02-10T23:46:00.643Z,99.90
2019-02-10T23:48:30.718Z,99.90
2019-02-10T23:51:00.804Z,99.90
2019-02-10T23:53:30.903Z,99.90
2019-02-10T23:56:00.986Z,99.90
2019-02-10T23:58:32.271Z,99.90
